Etretat — FIDP — position and weather

sailwx.info

Track history (hours):
 
Tides and Currents Weather Stations Pressure Air Temp Water Temp Dewpoint Dewpoint Depression Visibility Wind Speed Wind Dir Waves Ship Positions

Etretat

Last reported at 2014-Jul-24 11:34 UTC. Time now 2014-Jul-24 12:23 UTC.
Position N 50°44' W 001°03'.

Length 187 m; draft 6 m.

Type: Ship. MMSI: 228022900.

Date/timePositionNaut miles runAvg speedWind from/ knotsBaromVisibWave heightAir tempDewpointWater temp
2014-Jul-24 11:34N 50°44' W 001°03'5 5.2
2014-Jul-24 10:33N 50°49' W 001°06'0 0.0
2014-Jul-24 09:33N 50°49' W 001°06'0 0.0
2014-Jul-24 08:33N 50°49' W 001°06'0 0.0
2014-Jul-24 07:33N 50°49' W 001°06'1 1.4
2014-Jul-24 06:33N 50°47' W 001°07'1413.6
2014-Jul-24 05:33N 50°37' W 000°53'1212.3
2014-Jul-24 04:33N 50°26' W 000°45'1712.2
2014-Jul-24 03:08N 50°09' W 000°35'712.2
2014-Jul-24 02:33N 50°03' W 000°31'1212.3
2014-Jul-24 01:33N 49°53' W 000°21'1211.9
2014-Jul-24 00:33N 49°41' W 000°15'3 2.5
2014-Jul-23 23:33N 49°41' W 000°11'2 2.1
2014-Jul-23 22:33N 49°41' W 000°08'4 3.8
2014-Jul-23 21:33N 49°38' W 000°05'1111.4
2014-Jul-23 20:33N 49°29' E 000°06'1 0.6
2014-Jul-23 19:33N 49°29' E 000°07'0 0.0
2014-Jul-23 18:33N 49°29' E 000°07'0 0.0
2014-Jul-23 17:33N 49°29' E 000°07'0 0.0
2014-Jul-23 16:33N 49°29' E 000°07'10 9.7
2014-Jul-23 15:33N 49°36' W 000°04'6119.4
2014-Jul-23 12:24N 50°30' W 000°48'1619.1
2014-Jul-23 11:33N 50°43' W 001°03'6 5.7
2014-Jul-23 10:33N 50°49' W 001°06'0 0.0
2014-Jul-23 09:33N 50°49' W 001°06'0 0.0
2014-Jul-23 08:33N 50°49' W 001°06'0 0.0
2014-Jul-23 07:33N 50°49' W 001°06'1 0.7
2014-Jul-23 06:33N 50°48' W 001°07'1414.1
2014-Jul-23 05:33N 50°37' W 000°53'1312.6
2014-Jul-23 04:33N 50°26' W 000°43'4912.2
2014-Jul-23 00:32N 49°43' W 000°08'5 5.1
2014-Jul-22 23:33N 49°39' W 000°03'1 1.1
2014-Jul-22 22:33N 49°40' W 000°03'4 4.3
2014-Jul-22 21:33N 49°36' W 000°04'9 9.4
2014-Jul-22 20:34N 49°29' E 000°06'0 0.4
2014-Jul-22 19:33N 49°29' E 000°07'0 0.0
2014-Jul-22 18:33N 49°29' E 000°07'0 0.0
2014-Jul-22 17:33N 49°29' E 000°07'0 0.0
2014-Jul-22 16:33N 49°29' E 000°07'8 7.8
2014-Jul-22 15:33N 49°34' W 000°02'6220.7
2014-Jul-22 12:33N 50°29' W 000°48'2019.6
2014-Jul-22 11:33N 50°45' W 001°05'4 3.6
2014-Jul-22 10:34N 50°49' W 001°06'0 0.0
2014-Jul-22 09:33N 50°49' W 001°06'0 0.0
2014-Jul-22 08:34N 50°49' W 001°06'0 0.0
2014-Jul-22 07:34N 50°49' W 001°06'6 6.0
2014-Jul-22 06:33N 50°43' W 001°01'1414.3
2014-Jul-22 05:33N 50°32' W 000°47'5012.4
2014-Jul-22 01:33N 49°47' W 000°13'1312.8
2014-Jul-22 00:33N 49°36' W 000°04'1010.0
2014-Jul-21 23:33N 49°29' E 000°07'0 0.0
2014-Jul-21 22:33N 49°29' E 000°07'0 0.0
2014-Jul-21 21:33N 49°29' E 000°07'8 7.9
2014-Jul-21 20:33N 49°34' W 000°02'622.5
2014-Jul-21 20:18N 49°39' W 000°06'4923.0
2014-Jul-21 18:10N 50°24' W 000°40'1423.0
2014-Jul-21 17:33N 50°35' W 000°52'1616.3
2014-Jul-21 16:33N 50°49' W 001°06'0 0.4
2014-Jul-21 15:33N 50°49' W 001°06'0 0.0
2014-Jul-21 14:33N 50°49' W 001°06'3 3.2
2014-Jul-21 13:33N 50°45' W 001°05'1715.3
2014-Jul-21 12:27N 50°30' W 001°15'16821.0
2014-Jul-21 04:29N 48°44' W 004°36'1921.1
2014-Jul-21 03:33N 48°30' W 004°57'1918.6
2014-Jul-21 02:33N 48°14' W 005°10'2320.7
2014-Jul-21 01:28N 47°51' W 005°05'4 0.1
2014-Jul-19 20:27N 47°48' W 005°04'1920.6
2014-Jul-19 19:30N 48°07' W 005°10'2119.3
2014-Jul-19 18:25N 48°27' W 005°01'19021.4
2014-Jul-19 09:32N 50°25' W 001°13'1818.8
2014-Jul-19 08:34N 50°40' W 000°56'1110.5
2014-Jul-19 07:34N 50°49' W 001°06'0 0.0
2014-Jul-19 06:33N 50°49' W 001°06'0 0.0
2014-Jul-19 05:33N 50°49' W 001°06'0 0.0
2014-Jul-19 04:34N 50°49' W 001°06'7 6.5
2014-Jul-19 03:34N 50°43' W 001°00'1312.8
2014-Jul-19 02:33N 50°33' W 000°47'2911.6
2014-Jul-19 00:05N 50°07' W 000°29'1711.0
2014-Jul-18 22:33N 49°52' W 000°19'1211.0
2014-Jul-18 21:31N 49°42' W 000°09'1111.4
2014-Jul-18 20:33N 49°33' W 000°00'6 6.0
2014-Jul-18 19:33N 49°29' E 000°07'0 0.0
2014-Jul-18 18:33N 49°29' E 000°07'0 0.0
2014-Jul-18 17:33N 49°29' E 000°07'0 0.0
2014-Jul-18 16:33N 49°29' E 000°07'8 8.4
2014-Jul-18 15:34N 49°35' W 000°03'2119.3
2014-Jul-18 14:28N 49°53' W 000°18'1919.8
2014-Jul-18 13:31N 50°10' W 000°32'1919.7
2014-Jul-18 12:34N 50°27' W 000°45'2019.6
2014-Jul-18 11:33N 50°43' W 001°02'6 6.0
2014-Jul-18 10:34N 50°49' W 001°06'0 0.0
2014-Jul-18 09:34N 50°49' W 001°06'0 0.0
2014-Jul-18 08:34N 50°49' W 001°06'0 0.0
2014-Jul-18 07:34N 50°49' W 001°06'1 1.0
2014-Jul-18 06:33N 50°48' W 001°07'1413.9
2014-Jul-18 05:33N 50°37' W 000°54'1514.5
2014-Jul-18 04:33N 50°23' W 000°46'3114.5
2014-Jul-18 02:25N 49°57' W 000°21'1714.2
2014-Jul-18 01:13N 49°42' W 000°08'2 2.6
2014-Jul-18 00:33N 49°40' W 000°08'0 0.1
2014-Jul-17 23:33N 49°40' W 000°08'0 0.2
2014-Jul-17 22:33N 49°40' W 000°08'5 5.0
2014-Jul-17 21:34N 49°36' W 000°04'9 9.0
2014-Jul-17 20:34N 49°29' E 000°06'1 0.7
2014-Jul-17 19:34N 49°29' E 000°07'0 0.0
2014-Jul-17 18:34N 49°29' E 000°07'0 0.0
2014-Jul-17 17:34N 49°29' E 000°07'0 0.0
2014-Jul-17 16:33N 49°29' E 000°07'9 9.2
2014-Jul-17 15:33N 49°35' W 000°04'2819.3
2014-Jul-17 14:05N 50°01' W 000°23'1120.1
2014-Jul-17 13:32N 50°11' W 000°31'2020.8
2014-Jul-17 12:33N 50°28' W 000°49'1818.6
2014-Jul-17 11:34N 50°44' W 001°03'5 5.2
2014-Jul-17 10:34N 50°49' W 001°06'0 0.0
2014-Jul-17 09:34N 50°49' W 001°06'0 0.0
2014-Jul-17 08:34N 50°49' W 001°06'0 0.0
2014-Jul-17 07:34N 50°49' W 001°06'1 1.0
2014-Jul-17 06:34N 50°48' W 001°07'1313.5
2014-Jul-17 05:33N 50°37' W 000°54'1313.2
2014-Jul-17 04:33N 50°25' W 000°44'1413.2
2014-Jul-17 03:30N 50°13' W 000°34'1413.3
2014-Jul-17 02:28N 50°01' W 000°24'2312.0
2014-Jul-17 00:33N 49°41' W 000°05'3 2.6
2014-Jul-16 23:34N 49°39' W 000°05'1 1.4
2014-Jul-16 22:33N 49°38' W 000°07'5 4.6
2014-Jul-16 21:33N 49°34' W 000°04'8 8.5
2014-Jul-16 20:33N 49°29' E 000°07'0 0.0
2014-Jul-16 19:33N 49°29' E 000°07'0 0.0
2014-Jul-16 18:33N 49°29' E 000°07'0 0.0
2014-Jul-16 17:33N 49°29' E 000°07'0 0.0
2014-Jul-16 16:33N 49°29' E 000°07'9 9.0
2014-Jul-16 15:33N 49°35' W 000°04'2319.8
2014-Jul-16 14:24N 49°55' W 000°20'1719.9
2014-Jul-16 13:33N 50°10' W 000°32'2020.1
2014-Jul-16 12:33N 50°28' W 000°46'1919.2
2014-Jul-16 11:34N 50°44' W 001°04'5 5.0
2014-Jul-16 10:34N 50°49' W 001°06'0 0.0
2014-Jul-16 09:34N 50°49' W 001°06'0 0.0
2014-Jul-16 08:34N 50°49' W 001°06'0 0.0
2014-Jul-16 07:33N 50°49' W 001°06'1 0.9
2014-Jul-16 06:34N 50°48' W 001°07'1413.5
2014-Jul-16 05:33N 50°37' W 000°54'1211.9
2014-Jul-16 04:33N 50°26' W 000°47'1211.7
2014-Jul-16 03:33N 50°16' W 000°38'1312.8
2014-Jul-16 02:33N 50°05' W 000°27'1513.0
2014-Jul-16 01:24N 49°52' W 000°15'1112.9
2014-Jul-16 00:32N 49°43' W 000°05'3 2.9
2014-Jul-15 23:33N 49°41' W 000°02'2 2.3
2014-Jul-15 22:33N 49°40' W 000°05'2 1.7
2014-Jul-15 21:33N 49°39' W 000°07'1111.1
2014-Jul-15 20:34N 49°30' E 000°03'3 2.6
2014-Jul-15 19:33N 49°29' E 000°07'0 0.0
2014-Jul-15 18:33N 49°29' E 000°07'0 0.0
2014-Jul-15 17:34N 49°29' E 000°07'0 0.0
2014-Jul-15 16:33N 49°29' E 000°07'10 9.6
2014-Jul-15 15:33N 49°36' W 000°03'2221.0
2014-Jul-15 14:30N 49°55' W 000°20'2021.1
2014-Jul-15 13:34N 50°13' W 000°34'2121.5
2014-Jul-15 12:33N 50°32' W 000°51'1817.9
2014-Jul-15 11:34N 50°47' W 001°06'2 1.8
2014-Jul-15 10:34N 50°49' W 001°06'0 0.0
2014-Jul-15 09:34N 50°49' W 001°06'0 0.0
2014-Jul-15 08:33N 50°49' W 001°06'0 0.0
2014-Jul-15 07:34N 50°49' W 001°06'6 6.1
2014-Jul-15 06:33N 50°43' W 001°01'1413.9
2014-Jul-15 05:33N 50°32' W 000°49'1110.7
2014-Jul-15 04:32N 50°22' W 000°41'3811.4
2014-Jul-15 01:12N 49°48' W 000°13'711.6
2014-Jul-15 00:33N 49°42' W 000°08'1111.2
2014-Jul-14 23:33N 49°32' W 000°00'5 5.4
2014-Jul-14 22:33N 49°29' E 000°07'0 0.0
2014-Jul-14 21:33N 49°29' E 000°07'0 0.0
2014-Jul-14 20:33N 49°29' E 000°07'0 0.0
2014-Jul-14 19:33N 49°29' E 000°07'0 0.0
2014-Jul-14 18:33N 49°29' E 000°07'0 0.0
2014-Jul-14 17:33N 49°29' E 000°07'0 0.0
2014-Jul-14 16:33N 49°29' E 000°07'1 0.6
2014-Jul-14 15:33N 49°29' E 000°07'0 0.0
2014-Jul-14 14:33N 49°29' E 000°07'0 0.0
2014-Jul-14 13:32N 49°29' E 000°07'0 0.0
2014-Jul-14 12:32N 49°29' E 000°07'  
Track history (hours):
 
Tides and Currents Weather Stations Pressure Air Temp Water Temp Dewpoint Dewpoint Depression Visibility Wind Speed Wind Dir Waves Ship Positions

Etretat

Last reported at 2014-Jul-24 11:34 UTC. Time now 2014-Jul-24 12:23 UTC.
Position N 50°44' W 001°03'.

Length 187 m; draft 6 m.

Type: Ship. MMSI: 228022900.

Date/timePositionNaut miles runAvg speedWind from/ knotsBaromVisibWave heightAir tempDewpointWater temp
2014-Jul-24 11:34N 50°44' W 001°03'5 5.2
2014-Jul-24 10:33N 50°49' W 001°06'0 0.0
2014-Jul-24 09:33N 50°49' W 001°06'0 0.0
2014-Jul-24 08:33N 50°49' W 001°06'0 0.0
2014-Jul-24 07:33N 50°49' W 001°06'1 1.4
2014-Jul-24 06:33N 50°47' W 001°07'1413.6
2014-Jul-24 05:33N 50°37' W 000°53'1212.3
2014-Jul-24 04:33N 50°26' W 000°45'1712.2
2014-Jul-24 03:08N 50°09' W 000°35'712.2
2014-Jul-24 02:33N 50°03' W 000°31'1212.3
2014-Jul-24 01:33N 49°53' W 000°21'1211.9
2014-Jul-24 00:33N 49°41' W 000°15'3 2.5
2014-Jul-23 23:33N 49°41' W 000°11'2 2.1
2014-Jul-23 22:33N 49°41' W 000°08'4 3.8
2014-Jul-23 21:33N 49°38' W 000°05'1111.4
2014-Jul-23 20:33N 49°29' E 000°06'1 0.6
2014-Jul-23 19:33N 49°29' E 000°07'0 0.0
2014-Jul-23 18:33N 49°29' E 000°07'0 0.0
2014-Jul-23 17:33N 49°29' E 000°07'0 0.0
2014-Jul-23 16:33N 49°29' E 000°07'10 9.7
2014-Jul-23 15:33N 49°36' W 000°04'6119.4
2014-Jul-23 12:24N 50°30' W 000°48'1619.1
2014-Jul-23 11:33N 50°43' W 001°03'6 5.7
2014-Jul-23 10:33N 50°49' W 001°06'0 0.0
2014-Jul-23 09:33N 50°49' W 001°06'0 0.0
2014-Jul-23 08:33N 50°49' W 001°06'0 0.0
2014-Jul-23 07:33N 50°49' W 001°06'1 0.7
2014-Jul-23 06:33N 50°48' W 001°07'1414.1
2014-Jul-23 05:33N 50°37' W 000°53'1312.6
2014-Jul-23 04:33N 50°26' W 000°43'4912.2
2014-Jul-23 00:32N 49°43' W 000°08'5 5.1
2014-Jul-22 23:33N 49°39' W 000°03'1 1.1
2014-Jul-22 22:33N 49°40' W 000°03'4 4.3
2014-Jul-22 21:33N 49°36' W 000°04'9 9.4
2014-Jul-22 20:34N 49°29' E 000°06'0 0.4
2014-Jul-22 19:33N 49°29' E 000°07'0 0.0
2014-Jul-22 18:33N 49°29' E 000°07'0 0.0
2014-Jul-22 17:33N 49°29' E 000°07'0 0.0
2014-Jul-22 16:33N 49°29' E 000°07'8 7.8
2014-Jul-22 15:33N 49°34' W 000°02'6220.7
2014-Jul-22 12:33N 50°29' W 000°48'2019.6
2014-Jul-22 11:33N 50°45' W 001°05'4 3.6
2014-Jul-22 10:34N 50°49' W 001°06'0 0.0
2014-Jul-22 09:33N 50°49' W 001°06'0 0.0
2014-Jul-22 08:34N 50°49' W 001°06'0 0.0
2014-Jul-22 07:34N 50°49' W 001°06'6 6.0
2014-Jul-22 06:33N 50°43' W 001°01'1414.3
2014-Jul-22 05:33N 50°32' W 000°47'5012.4
2014-Jul-22 01:33N 49°47' W 000°13'1312.8
2014-Jul-22 00:33N 49°36' W 000°04'1010.0
2014-Jul-21 23:33N 49°29' E 000°07'0 0.0
2014-Jul-21 22:33N 49°29' E 000°07'0 0.0
2014-Jul-21 21:33N 49°29' E 000°07'8 7.9
2014-Jul-21 20:33N 49°34' W 000°02'622.5
2014-Jul-21 20:18N 49°39' W 000°06'4923.0
2014-Jul-21 18:10N 50°24' W 000°40'1423.0
2014-Jul-21 17:33N 50°35' W 000°52'1616.3
2014-Jul-21 16:33N 50°49' W 001°06'0 0.4
2014-Jul-21 15:33N 50°49' W 001°06'0 0.0
2014-Jul-21 14:33N 50°49' W 001°06'3 3.2
2014-Jul-21 13:33N 50°45' W 001°05'1715.3
2014-Jul-21 12:27N 50°30' W 001°15'16821.0
2014-Jul-21 04:29N 48°44' W 004°36'1921.1
2014-Jul-21 03:33N 48°30' W 004°57'1918.6
2014-Jul-21 02:33N 48°14' W 005°10'2320.7
2014-Jul-21 01:28N 47°51' W 005°05'4 0.1
2014-Jul-19 20:27N 47°48' W 005°04'1920.6
2014-Jul-19 19:30N 48°07' W 005°10'2119.3
2014-Jul-19 18:25N 48°27' W 005°01'19021.4
2014-Jul-19 09:32N 50°25' W 001°13'1818.8
2014-Jul-19 08:34N 50°40' W 000°56'1110.5
2014-Jul-19 07:34N 50°49' W 001°06'0 0.0
2014-Jul-19 06:33N 50°49' W 001°06'0 0.0
2014-Jul-19 05:33N 50°49' W 001°06'0 0.0
2014-Jul-19 04:34N 50°49' W 001°06'7 6.5
2014-Jul-19 03:34N 50°43' W 001°00'1312.8
2014-Jul-19 02:33N 50°33' W 000°47'2911.6
2014-Jul-19 00:05N 50°07' W 000°29'1711.0
2014-Jul-18 22:33N 49°52' W 000°19'1211.0
2014-Jul-18 21:31N 49°42' W 000°09'1111.4
2014-Jul-18 20:33N 49°33' W 000°00'6 6.0
2014-Jul-18 19:33N 49°29' E 000°07'0 0.0
2014-Jul-18 18:33N 49°29' E 000°07'0 0.0
2014-Jul-18 17:33N 49°29' E 000°07'0 0.0
2014-Jul-18 16:33N 49°29' E 000°07'8 8.4
2014-Jul-18 15:34N 49°35' W 000°03'2119.3
2014-Jul-18 14:28N 49°53' W 000°18'1919.8
2014-Jul-18 13:31N 50°10' W 000°32'1919.7
2014-Jul-18 12:34N 50°27' W 000°45'2019.6
2014-Jul-18 11:33N 50°43' W 001°02'6 6.0
2014-Jul-18 10:34N 50°49' W 001°06'0 0.0
2014-Jul-18 09:34N 50°49' W 001°06'0 0.0
2014-Jul-18 08:34N 50°49' W 001°06'0 0.0
2014-Jul-18 07:34N 50°49' W 001°06'1 1.0
2014-Jul-18 06:33N 50°48' W 001°07'1413.9
2014-Jul-18 05:33N 50°37' W 000°54'1514.5
2014-Jul-18 04:33N 50°23' W 000°46'3114.5
2014-Jul-18 02:25N 49°57' W 000°21'1714.2
2014-Jul-18 01:13N 49°42' W 000°08'2 2.6
2014-Jul-18 00:33N 49°40' W 000°08'0 0.1
2014-Jul-17 23:33N 49°40' W 000°08'0 0.2
2014-Jul-17 22:33N 49°40' W 000°08'5 5.0
2014-Jul-17 21:34N 49°36' W 000°04'9 9.0
2014-Jul-17 20:34N 49°29' E 000°06'1 0.7
2014-Jul-17 19:34N 49°29' E 000°07'0 0.0
2014-Jul-17 18:34N 49°29' E 000°07'0 0.0
2014-Jul-17 17:34N 49°29' E 000°07'0 0.0
2014-Jul-17 16:33N 49°29' E 000°07'9 9.2
2014-Jul-17 15:33N 49°35' W 000°04'2819.3
2014-Jul-17 14:05N 50°01' W 000°23'1120.1
2014-Jul-17 13:32N 50°11' W 000°31'2020.8
2014-Jul-17 12:33N 50°28' W 000°49'1818.6
2014-Jul-17 11:34N 50°44' W 001°03'5 5.2
2014-Jul-17 10:34N 50°49' W 001°06'0 0.0
2014-Jul-17 09:34N 50°49' W 001°06'0 0.0
2014-Jul-17 08:34N 50°49' W 001°06'0 0.0
2014-Jul-17 07:34N 50°49' W 001°06'1 1.0
2014-Jul-17 06:34N 50°48' W 001°07'1313.5
2014-Jul-17 05:33N 50°37' W 000°54'1313.2
2014-Jul-17 04:33N 50°25' W 000°44'1413.2
2014-Jul-17 03:30N 50°13' W 000°34'1413.3
2014-Jul-17 02:28N 50°01' W 000°24'2312.0
2014-Jul-17 00:33N 49°41' W 000°05'3 2.6
2014-Jul-16 23:34N 49°39' W 000°05'1 1.4
2014-Jul-16 22:33N 49°38' W 000°07'5 4.6
2014-Jul-16 21:33N 49°34' W 000°04'8 8.5
2014-Jul-16 20:33N 49°29' E 000°07'0 0.0
2014-Jul-16 19:33N 49°29' E 000°07'0 0.0
2014-Jul-16 18:33N 49°29' E 000°07'0 0.0
2014-Jul-16 17:33N 49°29' E 000°07'0 0.0
2014-Jul-16 16:33N 49°29' E 000°07'9 9.0
2014-Jul-16 15:33N 49°35' W 000°04'2319.8
2014-Jul-16 14:24N 49°55' W 000°20'1719.9
2014-Jul-16 13:33N 50°10' W 000°32'2020.1
2014-Jul-16 12:33N 50°28' W 000°46'1919.2
2014-Jul-16 11:34N 50°44' W 001°04'5 5.0
2014-Jul-16 10:34N 50°49' W 001°06'0 0.0
2014-Jul-16 09:34N 50°49' W 001°06'0 0.0
2014-Jul-16 08:34N 50°49' W 001°06'0 0.0
2014-Jul-16 07:33N 50°49' W 001°06'1 0.9
2014-Jul-16 06:34N 50°48' W 001°07'1413.5
2014-Jul-16 05:33N 50°37' W 000°54'1211.9
2014-Jul-16 04:33N 50°26' W 000°47'1211.7
2014-Jul-16 03:33N 50°16' W 000°38'1312.8
2014-Jul-16 02:33N 50°05' W 000°27'1513.0
2014-Jul-16 01:24N 49°52' W 000°15'1112.9
2014-Jul-16 00:32N 49°43' W 000°05'3 2.9
2014-Jul-15 23:33N 49°41' W 000°02'2 2.3
2014-Jul-15 22:33N 49°40' W 000°05'2 1.7
2014-Jul-15 21:33N 49°39' W 000°07'1111.1
2014-Jul-15 20:34N 49°30' E 000°03'3 2.6
2014-Jul-15 19:33N 49°29' E 000°07'0 0.0
2014-Jul-15 18:33N 49°29' E 000°07'0 0.0
2014-Jul-15 17:34N 49°29' E 000°07'0 0.0
2014-Jul-15 16:33N 49°29' E 000°07'10 9.6
2014-Jul-15 15:33N 49°36' W 000°03'2221.0
2014-Jul-15 14:30N 49°55' W 000°20'2021.1
2014-Jul-15 13:34N 50°13' W 000°34'2121.5
2014-Jul-15 12:33N 50°32' W 000°51'1817.9
2014-Jul-15 11:34N 50°47' W 001°06'2 1.8
2014-Jul-15 10:34N 50°49' W 001°06'0 0.0
2014-Jul-15 09:34N 50°49' W 001°06'0 0.0
2014-Jul-15 08:33N 50°49' W 001°06'0 0.0
2014-Jul-15 07:34N 50°49' W 001°06'6 6.1
2014-Jul-15 06:33N 50°43' W 001°01'1413.9
2014-Jul-15 05:33N 50°32' W 000°49'1110.7
2014-Jul-15 04:32N 50°22' W 000°41'3811.4
2014-Jul-15 01:12N 49°48' W 000°13'711.6
2014-Jul-15 00:33N 49°42' W 000°08'1111.2
2014-Jul-14 23:33N 49°32' W 000°00'5 5.4
2014-Jul-14 22:33N 49°29' E 000°07'0 0.0
2014-Jul-14 21:33N 49°29' E 000°07'0 0.0
2014-Jul-14 20:33N 49°29' E 000°07'0 0.0
2014-Jul-14 19:33N 49°29' E 000°07'0 0.0
2014-Jul-14 18:33N 49°29' E 000°07'0 0.0
2014-Jul-14 17:33N 49°29' E 000°07'0 0.0
2014-Jul-14 16:33N 49°29' E 000°07'1 0.6
2014-Jul-14 15:33N 49°29' E 000°07'0 0.0
2014-Jul-14 14:33N 49°29' E 000°07'0 0.0
2014-Jul-14 13:32N 49°29' E 000°07'0 0.0
2014-Jul-14 12:32N 49°29' E 000°07'  

Dump ship's entire track history